createdAt,value
2022-09-28T00:01:14.853Z,98603.97
2022-09-28T00:03:42.069Z,98605.88
2022-09-28T00:06:11.800Z,98617.78
2022-09-28T00:08:40.362Z,98609.13
2022-09-28T00:11:12.502Z,98588.75
2022-09-28T00:13:40.550Z,98599.75
2022-09-28T00:16:11.335Z,98602.28
2022-09-28T00:18:38.603Z,98582.78
2022-09-28T00:21:09.081Z,98599.75
2022-09-28T00:23:55.672Z,98599.66
2022-09-28T00:26:23.322Z,98597.94
2022-09-28T00:28:59.405Z,98594.50
2022-09-28T00:31:32.889Z,98585.84
2022-09-28T00:34:05.080Z,98588.53
2022-09-28T00:36:33.899Z,98583.34
2022-09-28T00:39:06.208Z,98580.00
2022-09-28T00:41:34.536Z,98579.06
2022-09-28T00:44:26.689Z,98581.72
2022-09-28T00:47:01.283Z,98573.88
2022-09-28T00:49:57.439Z,98573.16
2022-09-28T00:52:33.999Z,98569.75
2022-09-28T00:55:06.849Z,98574.00
2022-09-28T00:57:34.899Z,98569.78
2022-09-28T01:00:03.398Z,98567.50
2022-09-28T01:02:31.685Z,98574.25
2022-09-28T01:05:00.805Z,98576.78
2022-09-28T01:07:28.053Z,98572.44
2022-09-28T01:09:56.467Z,98582.78
2022-09-28T01:12:23.563Z,98563.22
2022-09-28T01:14:52.159Z,98579.28
2022-09-28T01:17:54.690Z,98579.28
2022-09-28T01:20:47.597Z,98576.72
2022-09-28T01:23:53.599Z,98575.91
2022-09-28T01:26:32.480Z,98573.53
2022-09-28T01:29:37.052Z,98584.84
2022-09-28T01:32:16.366Z,98577.84
2022-09-28T01:35:09.080Z,98560.75
2022-09-28T01:37:52.972Z,98569.06
2022-09-28T01:40:23.177Z,98570.09
2022-09-28T01:42:56.603Z,98556.31
2022-09-28T01:45:29.331Z,98562.34
2022-09-28T01:48:02.720Z,98564.00
2022-09-28T01:50:34.489Z,98558.97
2022-09-28T01:53:10.134Z,98560.63
2022-09-28T01:55:50.581Z,98564.25
2022-09-28T01:58:28.480Z,98565.34
2022-09-28T02:01:03.243Z,98564.38
2022-09-28T02:03:41.054Z,98568.75
2022-09-28T02:06:22.679Z,98560.88
2022-09-28T02:08:57.652Z,98569.63
2022-09-28T02:11:37.531Z,98571.38
2022-09-28T02:14:09.317Z,98555.38
2022-09-28T02:16:45.326Z,98575.03
2022-09-28T02:19:16.591Z,98577.59
2022-09-28T02:21:54.169Z,98567.25
2022-09-28T02:24:33.560Z,98576.84
2022-09-28T02:27:08.733Z,98573.56
2022-09-28T02:29:35.880Z,98575.28
2022-09-28T02:32:03.289Z,98570.13
2022-09-28T02:34:30.444Z,98568.41
2022-09-28T02:36:58.262Z,98574.50
2022-09-28T02:39:25.999Z,98563.47
2022-09-28T02:42:11.289Z,98568.63
2022-09-28T02:44:57.988Z,98567.19
2022-09-28T02:47:56.752Z,98569.00
2022-09-28T02:50:38.364Z,98577.84
2022-09-28T02:53:15.254Z,98577.97
2022-09-28T02:56:06.772Z,98582.41
2022-09-28T02:58:48.164Z,98581.66
2022-09-28T03:01:24.410Z,98579.97
2022-09-28T03:04:13.754Z,98589.34
2022-09-28T03:06:48.853Z,98590.22
2022-09-28T03:09:26.089Z,98584.16
2022-09-28T03:12:01.261Z,98583.38
2022-09-28T03:14:28.439Z,98580.19
2022-09-28T03:16:57.689Z,98583.47
2022-09-28T03:19:30.720Z,98576.78
2022-09-28T03:22:00.538Z,98589.47
2022-09-28T03:24:27.773Z,98590.31
2022-09-28T03:26:55.042Z,98590.44
2022-09-28T03:29:23.023Z,98595.50
2022-09-28T03:31:57.086Z,98598.88
2022-09-28T03:34:24.238Z,98598.88
2022-09-28T03:36:51.922Z,98592.88
2022-09-28T03:39:19.283Z,98599.75
2022-09-28T03:41:46.448Z,98592.00
2022-09-28T03:44:13.937Z,98587.84
2022-09-28T03:46:41.250Z,98587.88
2022-09-28T03:49:10.805Z,98586.22
2022-09-28T03:51:37.999Z,98587.25
2022-09-28T03:54:05.571Z,98585.56
2022-09-28T03:56:33.280Z,98581.38
2022-09-28T03:59:02.722Z,98581.59
2022-09-28T04:01:29.915Z,98586.59
2022-09-28T04:03:58.119Z,98579.59
2022-09-28T04:06:25.788Z,98582.31
2022-09-28T04:08:53.359Z,98578.69
2022-09-28T04:11:20.491Z,98576.91
2022-09-28T04:13:51.037Z,98583.88
2022-09-28T04:16:19.195Z,98583.97
2022-09-28T04:18:59.359Z,98589.03
2022-09-28T04:21:26.481Z,98583.75
2022-09-28T04:24:14.759Z,98577.13
2022-09-28T04:26:41.937Z,98571.84
2022-09-28T04:29:17.469Z,98592.31
2022-09-28T04:31:56.393Z,98589.03
2022-09-28T04:34:36.494Z,98590.75
2022-09-28T04:37:06.171Z,98586.34
2022-09-28T04:39:33.427Z,98587.13
2022-09-28T04:42:01.450Z,98594.09
2022-09-28T04:44:29.039Z,98586.53
2022-09-28T04:47:04.332Z,98587.34
2022-09-28T04:49:32.284Z,98587.34
2022-09-28T04:52:15.806Z,98586.53
2022-09-28T04:54:45.259Z,98591.75
2022-09-28T04:57:12.369Z,98596.19
2022-09-28T04:59:39.484Z,98587.53
2022-09-28T05:02:06.742Z,98589.25
2022-09-28T05:04:52.330Z,98587.63
2022-09-28T05:07:37.454Z,98582.50
2022-09-28T05:10:07.053Z,98581.72
2022-09-28T05:12:34.572Z,98573.41
2022-09-28T05:15:01.840Z,98582.81
2022-09-28T05:17:29.122Z,98584.50
2022-09-28T05:20:06.843Z,98582.81
2022-09-28T05:22:34.494Z,98578.63
2022-09-28T05:25:03.083Z,98569.53
2022-09-28T05:27:36.528Z,98585.66
2022-09-28T05:30:08.762Z,98583.03
2022-09-28T05:32:58.922Z,98575.31
2022-09-28T05:35:30.044Z,98578.72
2022-09-28T05:38:02.561Z,98583.03
2022-09-28T05:40:29.912Z,98583.13
2022-09-28T05:43:02.226Z,98588.19
2022-09-28T05:45:30.214Z,98596.81
2022-09-28T05:47:57.570Z,98595.25
2022-09-28T05:50:25.244Z,98600.41
2022-09-28T05:53:08.447Z,98599.59
2022-09-28T05:55:37.918Z,98599.59
2022-09-28T05:58:07.429Z,98601.38
2022-09-28T06:00:36.160Z,98604.78
2022-09-28T06:03:08.982Z,98593.47
2022-09-28T06:05:39.582Z,98596.09
2022-09-28T06:08:08.700Z,98589.97
2022-09-28T06:10:36.164Z,98588.19
2022-09-28T06:13:03.402Z,98586.50
2022-09-28T06:15:32.599Z,98592.41
2022-09-28T06:18:10.878Z,98581.41
2022-09-28T06:20:43.484Z,98583.13
2022-09-28T06:23:18.031Z,98589.97
2022-09-28T06:25:45.327Z,98583.22
2022-09-28T06:28:14.559Z,98583.44
2022-09-28T06:30:44.286Z,98575.00
2022-09-28T06:33:16.527Z,98580.38
2022-09-28T06:35:43.725Z,98581.97
2022-09-28T06:38:11.252Z,98573.31
2022-09-28T06:40:38.811Z,98582.34
2022-09-28T06:43:10.813Z,98582.03
2022-09-28T06:45:56.688Z,98569.00
2022-09-28T06:48:33.741Z,98566.94
2022-09-28T06:51:02.040Z,98578.91
2022-09-28T06:53:54.083Z,98585.97
2022-09-28T06:56:59.511Z,98575.88
2022-09-28T06:59:26.759Z,98573.28
2022-09-28T07:01:54.463Z,98574.06
2022-09-28T07:04:45.722Z,98582.50
2022-09-28T07:07:33.314Z,98576.22
2022-09-28T07:10:07.471Z,98581.78
2022-09-28T07:12:43.840Z,98575.63
2022-09-28T07:15:34.136Z,98573.03
2022-09-28T07:18:04.072Z,98574.47
2022-09-28T07:20:42.692Z,98577.97
2022-09-28T07:23:19.388Z,98575.72
2022-09-28T07:26:22.756Z,98580.19
2022-09-28T07:29:10.569Z,98578.47
2022-09-28T07:31:42.368Z,98575.72
2022-09-28T07:34:28.201Z,98571.25
2022-09-28T07:37:11.209Z,98586.19
2022-09-28T07:39:58.960Z,98587.66
2022-09-28T07:42:30.252Z,98592.75
2022-09-28T07:44:58.687Z,98577.63
2022-09-28T07:47:34.597Z,98594.72
2022-09-28T07:50:32.827Z,98594.84
2022-09-28T07:53:06.399Z,98586.84
2022-09-28T07:56:08.984Z,98595.50
2022-09-28T07:58:49.883Z,98594.94
2022-09-28T08:01:32.107Z,98596.28
2022-09-28T08:04:00.524Z,98587.84
2022-09-28T08:06:27.900Z,98590.28
2022-09-28T08:08:56.471Z,98594.69
2022-09-28T08:11:44.150Z,98603.50
2022-09-28T08:14:23.360Z,98597.66
2022-09-28T08:17:09.093Z,98604.31
2022-09-28T08:20:04.631Z,98605.84
2022-09-28T08:22:32.465Z,98603.56
2022-09-28T08:25:02.081Z,98597.00
2022-09-28T08:27:29.775Z,98597.50
2022-09-28T08:29:57.084Z,98592.25
2022-09-28T08:32:49.599Z,98590.97
2022-09-28T08:35:35.306Z,98589.97
2022-09-28T08:38:22.001Z,98594.28
2022-09-28T08:41:08.138Z,98592.47
2022-09-28T08:44:12.867Z,98588.94
2022-09-28T08:47:33.059Z,98601.09
2022-09-28T08:50:33.921Z,98604.06
2022-09-28T08:53:43.348Z,98607.38
2022-09-28T08:56:50.637Z,98599.34
2022-09-28T08:59:23.078Z,98605.53
2022-09-28T09:02:03.734Z,98606.09
2022-09-28T09:04:34.240Z,98588.97
2022-09-28T09:07:52.333Z,98596.94
2022-09-28T09:10:38.693Z,98601.66
2022-09-28T09:13:21.180Z,98602.94
2022-09-28T09:16:24.426Z,98596.59
2022-09-28T09:19:36.441Z,98593.81
2022-09-28T09:22:48.104Z,98605.88
2022-09-28T09:25:28.790Z,98598.97
2022-09-28T09:28:09.330Z,98604.25
2022-09-28T09:31:04.612Z,98604.69
2022-09-28T09:33:40.287Z,98605.28
2022-09-28T09:36:30.648Z,98607.38
2022-09-28T09:39:28.842Z,98612.69
2022-09-28T09:42:45.068Z,98610.72
2022-09-28T09:45:55.186Z,98598.09
2022-09-28T09:48:44.885Z,98588.81
2022-09-28T09:51:41.427Z,98575.09
2022-09-28T09:54:57.681Z,98586.31
2022-09-28T09:57:47.550Z,98579.91
2022-09-28T10:00:34.250Z,98582.50
2022-09-28T10:03:30.206Z,98580.88
2022-09-28T10:06:32.171Z,98581.88
2022-09-28T10:09:05.883Z,98581.81
2022-09-28T10:11:52.292Z,98579.28
2022-09-28T10:14:23.004Z,98568.97
2022-09-28T10:17:02.778Z,98570.00
2022-09-28T10:19:55.120Z,98556.69
2022-09-28T10:22:44.330Z,98570.34
2022-09-28T10:25:16.199Z,98570.25
2022-09-28T10:27:46.518Z,98562.81
2022-09-28T10:30:25.563Z,98554.47
2022-09-28T10:32:59.304Z,98558.44
2022-09-28T10:35:42.010Z,98553.53
2022-09-28T10:38:19.246Z,98543.09
2022-09-28T10:40:59.784Z,98511.84
2022-09-28T10:44:11.229Z,98523.94
2022-09-28T10:46:57.199Z,98554.47
2022-09-28T10:49:37.697Z,98537.66
2022-09-28T10:52:08.939Z,98543.72
2022-09-28T10:54:53.955Z,98536.84
2022-09-28T10:57:29.811Z,98541.88
2022-09-28T11:00:07.570Z,98544.75
2022-09-28T11:02:41.159Z,98544.03
2022-09-28T11:05:23.203Z,98535.09
2022-09-28T11:07:56.238Z,98545.50
2022-09-28T11:10:31.641Z,98546.59
2022-09-28T11:13:10.866Z,98557.00
2022-09-28T11:15:44.550Z,98554.31
2022-09-28T11:18:31.817Z,98548.66
2022-09-28T11:21:15.473Z,98549.69
2022-09-28T11:24:06.750Z,98525.78
2022-09-28T11:26:44.249Z,98529.78
2022-09-28T11:29:37.528Z,98558.09
2022-09-28T11:32:22.201Z,98554.72
2022-09-28T11:35:51.423Z,98522.44
2022-09-28T11:38:38.092Z,98552.84
2022-09-28T11:41:34.984Z,98553.16
2022-09-28T11:44:37.672Z,98556.06
2022-09-28T11:47:23.568Z,98556.13
2022-09-28T11:50:33.652Z,98541.84
2022-09-28T11:53:28.330Z,98558.22
2022-09-28T11:56:17.968Z,98559.28
2022-09-28T11:58:50.125Z,98554.50
2022-09-28T12:01:40.720Z,98518.03
2022-09-28T12:04:28.850Z,98559.59
2022-09-28T12:07:14.639Z,98551.97
2022-09-28T12:09:50.813Z,98553.03
2022-09-28T12:12:25.687Z,98531.63
2022-09-28T12:14:59.560Z,98559.69
2022-09-28T12:17:41.123Z,98555.56
2022-09-28T12:20:28.839Z,98562.53
2022-09-28T12:23:01.853Z,98552.41
2022-09-28T12:25:37.218Z,98565.34
2022-09-28T12:28:13.571Z,98551.03
2022-09-28T12:30:44.239Z,98560.81
2022-09-28T12:33:15.619Z,98559.00
2022-09-28T12:36:07.381Z,98553.66
2022-09-28T12:38:34.654Z,98550.72
2022-09-28T12:41:43.824Z,98525.75
2022-09-28T12:44:13.927Z,98544.03
2022-09-28T12:46:54.550Z,98543.41
2022-09-28T12:50:36.279Z,98543.56
2022-09-28T12:52:51.121Z,98542.00
2022-09-28T12:55:30.601Z,98543.00
2022-09-28T12:58:22.213Z,98531.31
2022-09-28T13:01:14.032Z,98529.03
2022-09-28T13:04:20.681Z,98512.34
2022-09-28T13:07:15.093Z,98527.31
2022-09-28T13:09:58.719Z,98525.81
2022-09-28T13:12:26.072Z,98525.81
2022-09-28T13:15:15.810Z,98526.81
2022-09-28T13:17:57.217Z,98523.69
2022-09-28T13:20:49.805Z,98524.69
2022-09-28T13:23:29.043Z,98526.66
2022-09-28T13:26:07.576Z,98525.16
2022-09-28T13:28:37.633Z,98525.88
2022-09-28T13:31:05.934Z,98494.88
2022-09-28T13:33:37.411Z,98520.47
2022-09-28T13:36:28.784Z,98524.69
2022-09-28T13:38:59.763Z,98523.03
2022-09-28T13:41:32.440Z,98522.88
2022-09-28T13:44:12.961Z,98526.34
2022-09-28T13:46:46.251Z,98517.69
2022-09-28T13:49:49.499Z,98516.78
2022-09-28T13:52:35.383Z,98513.88
2022-09-28T13:55:27.748Z,98529.34
2022-09-28T13:58:14.800Z,98507.16
2022-09-28T14:00:58.726Z,98527.47
2022-09-28T14:03:44.452Z,98520.56
2022-09-28T14:06:29.479Z,98518.94
2022-09-28T14:09:16.274Z,98512.22
2022-09-28T14:11:56.462Z,98505.50
2022-09-28T14:14:44.959Z,98503.09
2022-09-28T14:17:24.332Z,98504.84
2022-09-28T14:19:57.864Z,98506.66
2022-09-28T14:22:50.444Z,98505.06
2022-09-28T14:25:45.061Z,98498.63
2022-09-28T14:28:44.606Z,98508.03
2022-09-28T14:31:25.421Z,98501.47
2022-09-28T14:34:03.855Z,98506.09
2022-09-28T14:37:15.752Z,98503.00
2022-09-28T14:40:05.609Z,98515.94
2022-09-28T14:42:33.013Z,98525.34
2022-09-28T14:45:06.361Z,98536.41
2022-09-28T14:47:37.038Z,98535.69
2022-09-28T14:50:29.097Z,98521.34
2022-09-28T14:53:04.632Z,98525.38
2022-09-28T14:55:39.129Z,98513.38
2022-09-28T14:58:16.583Z,98535.19
2022-09-28T15:00:45.063Z,98487.50
2022-09-28T15:03:14.595Z,98532.47
2022-09-28T15:05:49.887Z,98529.28
2022-09-28T15:08:21.180Z,98524.59
2022-09-28T15:10:50.352Z,98528.38
2022-09-28T15:13:28.852Z,98534.59
2022-09-28T15:16:09.048Z,98537.44
2022-09-28T15:19:05.599Z,98528.88
2022-09-28T15:21:38.842Z,98528.16
2022-09-28T15:25:10.799Z,98539.34
2022-09-28T15:27:39.407Z,98424.91
2022-09-28T15:30:18.765Z,98539.81
2022-09-28T15:32:45.999Z,98536.47
2022-09-28T15:35:23.156Z,98539.81
2022-09-28T15:37:52.315Z,98538.38
2022-09-28T15:40:33.744Z,98526.59
2022-09-28T15:43:02.849Z,98524.91
2022-09-28T15:45:38.401Z,98513.81
2022-09-28T15:48:19.339Z,98514.72
2022-09-28T15:51:05.444Z,98519.81
2022-09-28T15:53:33.760Z,98540.44
2022-09-28T15:56:09.765Z,98491.66
2022-09-28T15:58:38.562Z,98548.75
2022-09-28T16:01:26.272Z,98564.38
2022-09-28T16:03:53.540Z,98565.38
2022-09-28T16:06:21.646Z,98571.47
2022-09-28T16:08:51.599Z,98530.13
2022-09-28T16:11:30.364Z,98570.00
2022-09-28T16:14:06.522Z,98553.25
2022-09-28T16:16:47.973Z,98541.78
2022-09-28T16:19:28.916Z,98566.97
2022-09-28T16:21:58.275Z,98575.59
2022-09-28T16:24:30.866Z,98569.78
2022-09-28T16:27:07.173Z,98567.28
2022-09-28T16:29:40.605Z,98567.28
2022-09-28T16:32:25.825Z,98570.66
2022-09-28T16:35:07.882Z,98571.50
2022-09-28T16:37:35.050Z,98570.66
2022-09-28T16:40:02.414Z,98533.34
2022-09-28T16:42:29.602Z,98575.41
2022-09-28T16:44:57.001Z,98557.47
2022-09-28T16:47:24.406Z,98537.28
2022-09-28T16:49:52.042Z,98546.53
2022-09-28T16:52:39.243Z,98559.66
2022-09-28T16:58:05.211Z,98549.75
2022-09-28T17:00:32.721Z,98567.28
2022-09-28T17:03:00.025Z,98526.28
2022-09-28T17:05:27.557Z,98544.81
2022-09-28T17:08:02.171Z,98566.63
2022-09-28T17:10:33.705Z,98575.28
2022-09-28T17:13:08.863Z,98570.22
2022-09-28T17:15:36.208Z,98574.22
2022-09-28T17:18:03.369Z,98585.28
2022-09-28T17:20:32.361Z,98580.22
2022-09-28T17:23:00.290Z,98573.56
2022-09-28T17:25:27.959Z,98584.78
2022-09-28T17:27:57.686Z,98583.91
2022-09-28T17:30:25.820Z,98591.75
2022-09-28T17:32:53.296Z,98585.84
2022-09-28T17:35:25.572Z,98579.22
2022-09-28T17:37:53.442Z,98599.78
2022-09-28T17:40:26.169Z,98589.66
2022-09-28T17:42:56.284Z,98597.31
2022-09-28T17:45:28.918Z,98578.69
2022-09-28T17:47:56.279Z,98593.06
2022-09-28T17:50:29.814Z,98590.28
2022-09-28T17:52:58.351Z,98550.75
2022-09-28T17:55:29.008Z,98603.16
2022-09-28T17:57:56.782Z,98596.28
2022-09-28T18:00:27.686Z,98581.22
2022-09-28T18:02:56.272Z,98594.63
2022-09-28T18:05:25.100Z,98582.06
2022-09-28T18:07:52.979Z,98598.81
2022-09-28T18:10:23.029Z,98589.66
2022-09-28T18:12:51.210Z,98600.75
2022-09-28T18:15:19.830Z,98596.28
2022-09-28T18:17:47.523Z,98547.66
2022-09-28T18:20:15.175Z,98604.00
2022-09-28T18:22:42.698Z,98604.84
2022-09-28T18:25:11.289Z,98571.13
2022-09-28T18:27:38.667Z,98603.28
2022-09-28T18:30:07.220Z,98612.72
2022-09-28T18:32:37.131Z,98580.91
2022-09-28T18:35:05.961Z,98603.28
2022-09-28T18:37:37.648Z,98613.63
2022-09-28T18:40:05.591Z,98613.63
2022-09-28T18:42:33.762Z,98617.19
2022-09-28T18:45:00.921Z,98615.41
2022-09-28T18:47:28.159Z,98612.03
2022-09-28T18:49:55.805Z,98562.97
2022-09-28T18:52:23.007Z,98581.78
2022-09-28T18:54:50.970Z,98619.78
2022-09-28T18:57:18.854Z,98571.53
2022-09-28T18:59:46.268Z,98567.56
2022-09-28T19:02:13.754Z,98617.31
2022-09-28T19:04:41.710Z,98615.28
2022-09-28T19:07:09.365Z,98620.34
2022-09-28T19:09:36.544Z,98620.34
2022-09-28T19:12:04.041Z,98600.25
2022-09-28T19:14:31.249Z,98627.31
2022-09-28T19:16:58.442Z,98621.31
2022-09-28T19:19:25.769Z,98627.28
2022-09-28T19:21:53.015Z,98612.13
2022-09-28T19:24:21.313Z,98625.63
2022-09-28T19:26:49.096Z,98634.19
2022-09-28T19:29:16.749Z,98618.03
2022-09-28T19:31:44.021Z,98612.03
2022-09-28T19:34:14.131Z,98628.91
2022-09-28T19:36:42.568Z,98627.13
2022-09-28T19:39:14.662Z,98632.06
2022-09-28T19:41:45.795Z,98613.34
2022-09-28T19:44:25.220Z,98625.22
2022-09-28T19:46:55.493Z,98619.00
2022-09-28T19:49:24.331Z,98573.59
2022-09-28T19:52:13.951Z,98619.91
2022-09-28T19:54:57.042Z,98622.63
2022-09-28T19:57:27.998Z,98621.72
2022-09-28T20:00:00.861Z,98596.63
2022-09-28T20:02:34.023Z,98632.28
2022-09-28T20:05:01.529Z,98549.81
2022-09-28T20:07:33.045Z,98634.88
2022-09-28T20:10:00.523Z,98630.69
2022-09-28T20:12:27.645Z,98637.88
2022-09-28T20:14:54.821Z,98643.06
2022-09-28T20:17:22.042Z,98628.16
2022-09-28T20:19:52.012Z,98648.44
2022-09-28T20:22:20.115Z,98646.78
2022-09-28T20:24:47.452Z,98646.84
2022-09-28T20:27:14.610Z,98648.66
2022-09-28T20:29:43.404Z,98640.13
2022-09-28T20:32:11.901Z,98633.47
2022-09-28T20:34:39.155Z,98646.91
2022-09-28T20:37:06.350Z,98640.22
2022-09-28T20:39:33.481Z,98645.41
2022-09-28T20:42:00.709Z,98642.00
2022-09-28T20:44:27.861Z,98643.69
2022-09-28T20:46:56.884Z,98640.13
2022-09-28T20:49:24.108Z,98644.56
2022-09-28T20:51:51.278Z,98643.59
2022-09-28T20:54:18.684Z,98640.34
2022-09-28T20:56:48.377Z,98548.22
2022-09-28T20:59:15.624Z,98648.84
2022-09-28T21:01:43.269Z,98600.56
2022-09-28T21:04:10.924Z,98636.72
2022-09-28T21:06:40.961Z,98652.88
2022-09-28T21:09:09.827Z,98646.19
2022-09-28T21:11:37.934Z,98658.09
2022-09-28T21:14:07.282Z,98642.19
2022-09-28T21:16:35.883Z,98633.88
2022-09-28T21:19:04.251Z,98639.75
2022-09-28T21:21:31.399Z,98622.16
2022-09-28T21:23:59.030Z,98675.56
2022-09-28T21:26:28.960Z,98671.34
2022-09-28T21:28:58.445Z,98679.88
2022-09-28T21:31:29.297Z,98678.22
2022-09-28T21:33:59.821Z,98680.09
2022-09-28T21:36:27.161Z,98658.22
2022-09-28T21:38:56.514Z,98687.13
2022-09-28T21:41:24.979Z,98683.00
2022-09-28T21:43:52.621Z,98645.19
2022-09-28T21:46:20.158Z,98688.28
2022-09-28T21:48:52.611Z,98680.56
2022-09-28T21:51:20.590Z,98686.78
2022-09-28T21:53:49.420Z,98645.41
2022-09-28T21:56:16.835Z,98699.66
2022-09-28T21:58:43.959Z,98705.78
2022-09-28T22:01:14.951Z,98708.38
2022-09-28T22:03:44.318Z,98696.56
2022-09-28T22:06:11.950Z,98703.41
2022-09-28T22:08:39.890Z,98674.06
2022-09-28T22:11:08.537Z,98707.84
2022-09-28T22:13:44.631Z,98712.22
2022-09-28T22:16:13.503Z,98713.97
2022-09-28T22:18:41.150Z,98715.69
2022-09-28T22:21:15.793Z,98720.81
2022-09-28T22:23:42.967Z,98676.19
2022-09-28T22:26:20.277Z,98672.50
2022-09-28T22:28:56.138Z,98730.97
2022-09-28T22:31:26.690Z,98730.16
2022-09-28T22:33:54.691Z,98732.63
2022-09-28T22:36:21.786Z,98730.84
2022-09-28T22:38:49.397Z,98738.59
2022-09-28T22:41:21.057Z,98737.69
2022-09-28T22:43:50.064Z,98701.38
2022-09-28T22:46:23.342Z,98695.84
2022-09-28T22:48:53.410Z,98739.69
2022-09-28T22:51:21.567Z,98746.47
2022-09-28T22:53:48.977Z,98728.63
2022-09-28T22:56:18.946Z,98738.97
2022-09-28T22:58:47.255Z,98741.38
2022-09-28T23:01:18.017Z,98741.47
2022-09-28T23:03:45.388Z,98746.53
2022-09-28T23:06:15.148Z,98746.53
2022-09-28T23:08:43.148Z,98726.41
2022-09-28T23:11:10.972Z,98750.03
2022-09-28T23:13:38.621Z,98741.66
2022-09-28T23:16:08.262Z,98758.56
2022-09-28T23:18:37.778Z,98720.38
2022-09-28T23:21:07.097Z,98760.25
2022-09-28T23:23:34.792Z,98762.94
2022-09-28T23:26:14.583Z,98771.59
2022-09-28T23:28:41.746Z,98763.94
2022-09-28T23:31:10.410Z,98706.66
2022-09-28T23:33:37.858Z,98763.22
2022-09-28T23:36:05.493Z,98770.88
2022-09-28T23:38:32.984Z,98689.75
2022-09-28T23:41:00.460Z,98768.22
2022-09-28T23:43:27.926Z,98753.97
2022-09-28T23:45:55.195Z,98762.53
2022-09-28T23:48:22.413Z,98752.38
2022-09-28T23:50:49.768Z,98762.63
2022-09-28T23:53:16.907Z,98752.53
2022-09-28T23:55:44.142Z,98767.78
2022-09-28T23:58:12.363Z,98766.91
